Cerberus, Australia
Current Conditions -  °F | °C
As of 9:00 PM on Thursday 29 Jan 2015 (Local Time) from YMAV Reporting Station
Broken Clouds Broken Clouds  
Wind Chill: 61°   Ceiling: 3300
Heat Index: 61°   Visibility: 6mi
Dew Point: 52°   Wind: 13mph
Humidity: 72%   Direction: 150°SSE
Pressure: 30.06"   Gusts: NA
Location:  38.35°S, 145.17°E
Report Text: YMAV 291000Z AUTO 15011KT 9999 // SCT028 BKN033 16/11 Q1018
Loading
Personal Weather Stations






























Interactive Weather Map New forecast layout! Learn more

10-Day Weather Forecast

Advertisements
Track Severe Weather on mobile